Погода Нсаньена 2 недели

Северо-Апская Провинция, Малави

13 - 26 июля
  • 13июля
    Сегодня
    +17°
    +32°
    Ясно и безоблачно
    ВремяПогодаТемператураВлажностьДавлениеВетер, м/сВероятность осадков
    02:00Ясно и безоблачно+20°C66 %763 мм1.0 м/с5 %
    05:00Ясно и безоблачно+18°C86 %763 мм1.0 м/с5 %
    08:00Ясно и безоблачно+21°C75 %764 мм0.8 м/с5 %
    11:00Ясно и безоблачно+28°C44 %764 мм1.7 м/с5 %
    14:00Ясно и безоблачно+31°C32 %762 мм1.5 м/с5 %
    17:00Ясно и безоблачно+29°C43 %762 мм1.4 м/с5 %
    20:00Ясно и безоблачно+25°C42 %763 мм1.5 м/с5 %
    23:00Ясно и безоблачно+23°C46 %763 мм1.2 м/с5 %
  • 14июля
    Воскресенье
    +17°
    +32°
    Ясно и безоблачно
    ВремяПогодаТемператураВлажностьДавлениеВетер, м/сВероятность осадков
    02:00Ясно и безоблачно+19°C69 %763 мм1.0 м/с5 %
    05:00Ясно и безоблачно+18°C84 %763 мм0.7 м/с5 %
    08:00Ясно и безоблачно+21°C71 %764 мм0.6 м/с5 %
    11:00Ясно и безоблачно+28°C39 %763 мм1.6 м/с5 %
    14:00Ясно и безоблачно+32°C27 %761 мм1.0 м/с5 %
    17:00Ясно и безоблачно+29°C39 %761 мм0.9 м/с5 %
    20:00Ясно и безоблачно+25°C36 %762 мм1.3 м/с5 %
    23:00Ясно и безоблачно+23°C44 %762 мм0.6 м/с5 %
  • 15июля
    Понедельник
    +17°
    +32°
    Ясно и безоблачно
    ВремяПогодаТемператураВлажностьДавлениеВетер, м/сВероятность осадков
    02:00Ясно и безоблачно+21°C55 %762 мм0.5 м/с5 %
    05:00Ясно и безоблачно+18°C77 %761 мм1.0 м/с5 %
    08:00Ясно и безоблачно+22°C64 %763 мм1.1 м/с5 %
    11:00Ясно и безоблачно+28°C37 %763 мм1.2 м/с5 %
    14:00Ясно и безоблачно+32°C23 %760 мм0.9 м/с5 %
    17:00Ясно и безоблачно+28°C36 %760 мм1.4 м/с5 %
    20:00Ясно и безоблачно+23°C46 %762 мм2.0 м/с5 %
    23:00Ясно и безоблачно+22°C57 %763 мм1.4 м/с5 %
  • 16июля
    Вторник
    +17°
    +31°
    Ясно и безоблачно
    ВремяПогодаТемператураВлажностьДавлениеВетер, м/сВероятность осадков
    02:00Ясно и безоблачно+20°C69 %762 мм1.0 м/с5 %
    05:00Практически безоблачно+18°C92 %762 мм1.6 м/с3 %
    08:00Практически безоблачно+20°C82 %764 мм1.6 м/с3 %
    11:00Ясно и безоблачно+27°C47 %763 мм1.8 м/с3 %
    14:00Ясно и безоблачно+31°C32 %761 мм2.0 м/с4 %
    17:00Ясно и безоблачно+28°C37 %761 мм2.5 м/с5 %
    20:00Ясно и безоблачно+23°C47 %762 мм2.1 м/с5 %
    23:00Ясно и безоблачно+21°C61 %763 мм1.8 м/с5 %
  • 17июля
    Среда
    +17°
    +31°
    Ясно и безоблачно
    ВремяПогодаТемператураВлажностьДавлениеВетер, м/сВероятность осадков
    02:00Ясно и безоблачно+19°C85 %762 мм1.3 м/с5 %
    05:00Ясно и безоблачно+18°C94 %763 мм1.2 м/с5 %
    08:00Ясно и безоблачно+21°C79 %764 мм1.1 м/с5 %
    11:00Ясно и безоблачно+27°C48 %764 мм1.8 м/с5 %
    14:00Ясно и безоблачно+31°C34 %761 мм1.2 м/с5 %
    17:00Ясно и безоблачно+29°C41 %761 мм1.5 м/с5 %
    20:00Ясно и безоблачно+23°C51 %762 мм1.6 м/с5 %
    23:00Ясно и безоблачно+21°C67 %763 мм1.5 м/с5 %
Мы используем cookies
Соглашаюсь